Sunday, April 21, 2019, 10:31 PM EDT
Back to Local

KMTP, Montauk Airport

Location: Montauk, NY, United States Lat: 41.067
Local Time: 10:31 PM EDT ( 2:31 GMT) Lon: -71.917
Time Zone: US/Eastern Elev: 6 ft

Show me the last for .
Show Decoded

2019-04-21 21:54 METAR KMTP 220154Z AUTO 00000KT 09/08 A3013 RMK AO1 SLP202 T00940083 =
2019-04-21 20:54 METAR KMTP 220054Z AUTO 00000KT 10/09 A3013 RMK AO1 SLP203 T01000089 =
2019-04-21 19:54 METAR KMTP 212354Z AUTO VRB03KT 11/09 A3012 RMK AO1 SLP198 T01110094 10156 20111
                 51013 =
2019-04-21 18:54 METAR KMTP 212254Z AUTO 00000KT 12/10 A3010 RMK AO1 SLP192 T01220100 =
2019-04-21 17:54 METAR KMTP 212154Z AUTO 19004KT 12/10 A3010 RMK AO1 SLP192 T01220100 =
2019-04-21 16:54 METAR KMTP 212054Z AUTO 18007KT 14/11 A3008 RMK AO1 SLP185 T01390106 51010 =
2019-04-21 15:54 METAR KMTP 211954Z AUTO VRB05KT 14/11 A3008 RMK AO1 SLP184 T01390111 =
2019-04-21 14:54 METAR KMTP 211854Z AUTO 18006KT 13/11 A3008 RMK AO1 SLP184 T01330111 =
2019-04-21 13:54 METAR KMTP 211754Z AUTO VRB04KT 14/12 A3005 RMK AO1 SLP175 60005 T01390117 10172
                 20117 55002 =
2019-04-21 12:54 METAR KMTP 211654Z AUTO 00000KT 15/12 A3004 RMK AO1 SLP173 P0001 T01500122 =
2019-04-21 11:54 METAR KMTP 211554Z AUTO VRB04KT 14/12 A3004 RMK AO1 SLP172 T01390117 =
2019-04-21 10:54 METAR KMTP 211454Z AUTO 16005KT 13/12 A3006 RMK AO1 SLP177 60004 T01330122 53015
                 =
2019-04-21 09:54 METAR KMTP 211354Z AUTO 00000KT 13/12 A3004 RMK AO1 SLP173 P0004 T01280117 =
2019-04-21 08:54 METAR KMTP 211254Z AUTO VRB03KT 12/11 A3002 RMK AO1 SLP166 T01170106 =
2019-04-21 07:54 METAR KMTP 211154Z AUTO 18003KT 12/11 A3001 RMK AO1 SLP163 60001 70054 T01170106
                 10133 20117 51019 =
2019-04-21 06:54 METAR KMTP 211054Z AUTO 13006KT 13/11 A3001 RMK AO1 SLP161 P0001 T01280111 =
2019-04-21 05:54 METAR KMTP 210954Z AUTO 14007KT 110V170 12/11 A2997 RMK AO1 SLP149 T01220106 =
2019-04-21 04:54 METAR KMTP 210854Z AUTO 14007KT 120V190 13/11 A2996 RMK AO1 SLP144 T01280106
                 58001 =
2019-04-21 03:54 METAR KMTP 210754Z AUTO VRB03KT 12/11 A2996 RMK AO1 SLP144 T01220106 =
2019-04-21 02:54 METAR KMTP 210654Z AUTO VRB05KT 13/12 A2998 RMK AO1 SLP150 T01280117 =
2019-04-21 01:54 METAR KMTP 210554Z AUTO VRB03KT 13/12 A2996 RMK AO1 SLP145 60014 T01330122 10144
                 20117 50005 =
2019-04-21 00:54 METAR KMTP 210454Z AUTO 15003KT 13/12 A2996 RMK AO1 SLP146 P0003 T01280122
                 401560117 =
2019-04-20 23:54 METAR KMTP 210354Z AUTO 21005KT 13/13 A2997 RMK AO1 SLP147 P0007 T01330128 =
2019-04-20 22:54 METAR KMTP 210254Z AUTO VRB04KT 14/13 A2995 RMK AO1 SLP141 P0004 60004 T01440133
                 50011 =

Support USWX by starting your Amazon purchase here.